Bramhope, United Kingdom
Current Conditions -  °F | °C
As of 2:20 AM on Sunday 26 Oct 2014 (Local Time) from EGNM Reporting Station
Clear Clear  
Wind Chill: 50°   Ceiling: Unl
Heat Index: 50°   Visibility: 6mi
Dew Point: 46°   Wind: 13mph
Humidity: 87%   Direction: 230°SW
Pressure: 29.94"   Gusts: NA
Location:  53.88°N, 1.62°W
Report Text: EGNM 260120Z 23011KT 190V270 CAVOK 10/08 Q1014
Loading
Personal Weather Stations






























Interactive Weather Map
Tropical Storm Tracking
New forecast layout! Learn more

10-Day Weather Forecast

Advertisements
Track Severe Weather on mobile